createdAt,value
2017-12-25T00:00:46.279Z,4.66
2017-12-25T00:01:46.302Z,4.73
2017-12-25T00:02:46.303Z,4.71
2017-12-25T00:03:46.104Z,4.75
2017-12-25T00:04:46.348Z,4.86
2017-12-25T00:05:46.336Z,4.87
2017-12-25T00:06:46.127Z,4.94
2017-12-25T00:07:46.144Z,4.93
2017-12-25T00:08:46.381Z,5.12
2017-12-25T00:09:46.142Z,5.05
2017-12-25T00:10:46.412Z,5.05
2017-12-25T00:11:46.174Z,5.08
2017-12-25T00:12:46.436Z,5.02
2017-12-25T00:13:46.447Z,5.04
2017-12-25T00:14:46.461Z,4.89
2017-12-25T00:15:46.224Z,4.86
2017-12-25T00:16:45.985Z,4.74
2017-12-25T00:17:46.579Z,4.66
2017-12-25T00:18:46.517Z,4.71
2017-12-25T00:19:46.280Z,4.67
2017-12-25T00:20:46.545Z,4.89
2017-12-25T00:21:46.559Z,4.87
2017-12-25T00:22:46.069Z,4.89
2017-12-25T00:23:46.336Z,5
2017-12-25T00:24:46.598Z,4.71
2017-12-25T00:25:46.367Z,4.71
2017-12-25T00:26:46.631Z,4.75
2017-12-25T00:27:46.496Z,4.9
2017-12-25T00:28:46.404Z,4.74
2017-12-25T00:29:46.667Z,4.66
2017-12-25T00:30:46.688Z,4.73
2017-12-25T00:31:46.459Z,4.84
2017-12-25T00:32:46.510Z,4.75
2017-12-25T00:33:46.734Z,4.84
2017-12-25T00:34:46.490Z,4.87
2017-12-25T00:35:46.500Z,4.87
2017-12-25T00:36:46.774Z,4.9
2017-12-25T00:37:46.280Z,4.93
2017-12-25T00:38:46.799Z,4.92
2017-12-25T00:39:46.323Z,4.94
2017-12-25T00:40:46.575Z,4.87
2017-12-25T00:41:46.333Z,4.96
2017-12-25T00:42:46.850Z,4.9
2017-12-25T00:43:46.870Z,4.93
2017-12-25T00:44:46.894Z,4.93
2017-12-25T00:45:46.897Z,4.94
2017-12-25T00:46:46.906Z,4.9
2017-12-25T00:47:46.723Z,4.93
2017-12-25T00:48:46.694Z,4.9
2017-12-25T00:49:46.699Z,4.75
2017-12-25T00:50:46.714Z,4.68
2017-12-25T00:51:46.978Z,4.6
2017-12-25T00:52:46.741Z,4.63
2017-12-25T00:53:46.754Z,4.75
2017-12-25T00:54:47.018Z,4.73
2017-12-25T00:55:46.782Z,4.62
2017-12-25T00:56:47.048Z,4.66
2017-12-25T00:57:46.815Z,4.62
2017-12-25T00:58:47.075Z,4.6
2017-12-25T00:59:47.089Z,4.34
2017-12-25T01:00:47.101Z,4.16
2017-12-25T01:01:47.117Z,3.98
2017-12-25T01:02:47.934Z,3.76
2017-12-25T01:03:46.893Z,3.92
2017-12-25T01:04:46.906Z,3.59
2017-12-25T01:05:47.178Z,3.42
2017-12-25T01:06:46.934Z,3.25
2017-12-25T01:07:46.948Z,3.34
2017-12-25T01:08:46.709Z,3.5
2017-12-25T01:09:47.224Z,3.66
2017-12-25T01:10:46.983Z,3.77
2017-12-25T01:11:46.999Z,3.78
2017-12-25T01:12:46.762Z,3.76
2017-12-25T01:13:47.028Z,3.59
2017-12-25T01:14:46.788Z,3.34
2017-12-25T01:15:47.303Z,3.04
2017-12-25T01:16:47.319Z,3.08
2017-12-25T01:17:47.388Z,3.03
2017-12-25T01:18:47.341Z,2.9
2017-12-25T01:19:47.359Z,2.93
2017-12-25T01:20:47.377Z,3.04
2017-12-25T01:21:47.388Z,3.05
2017-12-25T01:22:47.399Z,2.89
2017-12-25T01:23:47.167Z,2.98
2017-12-25T01:24:47.173Z,3.07
2017-12-25T01:25:47.433Z,3.13
2017-12-25T01:26:47.201Z,3.25
2017-12-25T01:27:46.959Z,3.18
2017-12-25T01:28:46.969Z,3.18
2017-12-25T01:29:47.237Z,3.25
2017-12-25T01:30:47.499Z,3.18
2017-12-25T01:31:47.514Z,3.07
2017-12-25T01:32:47.582Z,3.23
2017-12-25T01:33:47.537Z,3.28
2017-12-25T01:34:47.550Z,3.05
2017-12-25T01:35:47.566Z,3
2017-12-25T01:36:47.574Z,3.05
2017-12-25T01:37:47.590Z,3.05
2017-12-25T01:38:47.353Z,2.82
2017-12-25T01:39:47.375Z,2.83
2017-12-25T01:40:47.377Z,2.69
2017-12-25T01:41:47.140Z,2.61
2017-12-25T01:42:47.657Z,2.68
2017-12-25T01:43:47.688Z,2.67
2017-12-25T01:44:47.687Z,2.79
2017-12-25T01:45:47.695Z,2.86
2017-12-25T01:46:47.200Z,2.9
2017-12-25T01:47:47.520Z,2.95
2017-12-25T01:48:47.736Z,3
2017-12-25T01:49:47.493Z,2.98
2017-12-25T01:50:47.762Z,3.05
2017-12-25T01:51:47.778Z,3.13
2017-12-25T01:52:47.530Z,3.19
2017-12-25T01:53:47.546Z,3.23
2017-12-25T01:54:47.810Z,3.04
2017-12-25T01:55:47.826Z,3.13
2017-12-25T01:56:47.835Z,3.19
2017-12-25T01:57:47.861Z,3.26
2017-12-25T01:58:47.867Z,3.28
2017-12-25T01:59:47.875Z,3.16
2017-12-25T02:00:47.893Z,3.26
2017-12-25T02:01:47.649Z,3.22
2017-12-25T02:02:47.709Z,3.14
2017-12-25T02:03:47.674Z,3.16
2017-12-25T02:04:47.437Z,3.19
2017-12-25T02:05:47.961Z,3.25
2017-12-25T02:06:47.716Z,3.28
2017-12-25T02:07:47.730Z,3.51
2017-12-25T02:08:47.741Z,3.62
2017-12-25T02:09:48.008Z,3.76
2017-12-25T02:10:47.764Z,3.8
2017-12-25T02:11:47.786Z,3.83
2017-12-25T02:12:48.148Z,3.6
2017-12-25T02:13:47.805Z,3.66
2017-12-25T02:14:48.071Z,3.62
2017-12-25T02:15:47.843Z,3.62
2017-12-25T02:16:48.096Z,3.77
2017-12-25T02:17:47.607Z,3.6
2017-12-25T02:18:48.123Z,3.62
2017-12-25T02:19:48.137Z,3.73
2017-12-25T02:20:47.646Z,3.77
2017-12-25T02:21:48.161Z,3.92
2017-12-25T02:22:48.182Z,3.98
2017-12-25T02:23:47.934Z,3.92
2017-12-25T02:24:47.952Z,4.01
2017-12-25T02:25:47.961Z,4.02
2017-12-25T02:26:48.231Z,3.98
2017-12-25T02:27:48.238Z,3.86
2017-12-25T02:28:48.259Z,3.91
2017-12-25T02:29:48.274Z,3.87
2017-12-25T02:30:48.036Z,3.81
2017-12-25T02:31:48.296Z,3.69
2017-12-25T02:32:48.056Z,3.69
2017-12-25T02:33:48.325Z,3.68
2017-12-25T02:34:48.087Z,3.83
2017-12-25T02:35:48.102Z,3.88
2017-12-25T02:36:48.119Z,3.87
2017-12-25T02:37:48.416Z,3.78
2017-12-25T02:38:48.140Z,3.76
2017-12-25T02:39:48.410Z,3.78
2017-12-25T02:40:48.416Z,3.78
2017-12-25T02:41:48.432Z,3.81
2017-12-25T02:42:48.196Z,3.77
2017-12-25T02:43:47.953Z,3.8
2017-12-25T02:44:48.223Z,3.76
2017-12-25T02:45:48.232Z,3.65
2017-12-25T02:46:48.495Z,3.65
2017-12-25T02:47:48.515Z,3.59
2017-12-25T02:48:48.531Z,3.66
2017-12-25T02:49:48.348Z,3.51
2017-12-25T02:50:48.555Z,3.48
2017-12-25T02:51:48.567Z,3.16
2017-12-25T02:52:48.077Z,3.18
2017-12-25T02:53:48.593Z,3.19
2017-12-25T02:54:48.602Z,3.29
2017-12-25T02:55:48.113Z,3.41
2017-12-25T02:56:48.630Z,3.42
2017-12-25T02:57:48.141Z,3.29
2017-12-25T02:58:48.407Z,3.14
2017-12-25T02:59:48.424Z,3.16
2017-12-25T03:00:48.701Z,3.08
2017-12-25T03:01:48.700Z,3.11
2017-12-25T03:02:48.463Z,3.07
2017-12-25T03:03:48.732Z,3.1
2017-12-25T03:04:48.533Z,3.05
2017-12-25T03:05:48.750Z,2.89
2017-12-25T03:06:48.510Z,2.87
2017-12-25T03:07:48.785Z,2.61
2017-12-25T03:08:48.285Z,2.68
2017-12-25T03:09:48.801Z,2.71
2017-12-25T03:10:48.820Z,2.87
2017-12-25T03:11:48.573Z,2.82
2017-12-25T03:12:48.334Z,2.8
2017-12-25T03:13:48.878Z,2.9
2017-12-25T03:14:48.616Z,2.97
2017-12-25T03:15:48.621Z,3.16
2017-12-25T03:16:48.893Z,3.19
2017-12-25T03:17:48.650Z,3.34
2017-12-25T03:18:48.668Z,3.36
2017-12-25T03:19:48.972Z,3.51
2017-12-25T03:20:48.937Z,3.53
2017-12-25T03:21:48.952Z,3.6
2017-12-25T03:22:48.911Z,3.55
2017-12-25T03:23:48.974Z,3.26
2017-12-25T03:24:49.000Z,3.22
2017-12-25T03:25:49.006Z,3.21
2017-12-25T03:26:48.767Z,3.28
2017-12-25T03:27:49.037Z,3.36
2017-12-25T03:28:49.045Z,3.55
2017-12-25T03:29:49.059Z,3.48
2017-12-25T03:30:49.075Z,3.48
2017-12-25T03:31:48.830Z,3.41
2017-12-25T03:32:49.096Z,3.59
2017-12-25T03:33:49.108Z,3.68
2017-12-25T03:34:48.978Z,3.55
2017-12-25T03:35:49.130Z,3.53
2017-12-25T03:36:48.644Z,3.48
2017-12-25T03:37:49.159Z,3.45
2017-12-25T03:38:48.920Z,3.58
2017-12-25T03:39:48.935Z,3.34
2017-12-25T03:40:49.200Z,3.32
2017-12-25T03:41:48.708Z,3.31
2017-12-25T03:42:48.975Z,3.26
2017-12-25T03:43:48.990Z,3.23
2017-12-25T03:44:49.247Z,2.97
2017-12-25T03:45:49.010Z,3
2017-12-25T03:46:48.772Z,3.05
2017-12-25T03:47:49.293Z,3.1
2017-12-25T03:48:49.305Z,3.13
2017-12-25T03:49:48.914Z,2.97
2017-12-25T03:50:49.074Z,3.14
2017-12-25T03:51:49.354Z,2.93
2017-12-25T03:52:49.101Z,3.01
2017-12-25T03:53:49.380Z,3.1
2017-12-25T03:54:49.130Z,3.21
2017-12-25T03:55:48.889Z,3.18
2017-12-25T03:56:49.154Z,3.19
2017-12-25T03:57:49.422Z,3.21
2017-12-25T03:58:49.177Z,3.08
2017-12-25T03:59:49.444Z,3.04
2017-12-25T04:00:49.457Z,3.13
2017-12-25T04:01:49.481Z,3.03
2017-12-25T04:02:49.500Z,3.01
2017-12-25T04:03:49.246Z,2.85
2017-12-25T04:04:49.309Z,2.97
2017-12-25T04:05:49.273Z,2.82
2017-12-25T04:06:49.537Z,2.86
2017-12-25T04:07:49.299Z,2.85
2017-12-25T04:08:49.561Z,2.89
2017-12-25T04:09:49.069Z,3.04
2017-12-25T04:10:49.333Z,3.13
2017-12-25T04:11:49.599Z,3.22
2017-12-25T04:12:49.110Z,3.19
2017-12-25T04:13:49.377Z,3.23
2017-12-25T04:14:49.386Z,3.04
2017-12-25T04:15:49.399Z,2.89
2017-12-25T04:16:49.667Z,2.71
2017-12-25T04:17:49.430Z,2.71
2017-12-25T04:18:49.436Z,2.61
2017-12-25T04:19:49.246Z,2.69
2017-12-25T04:20:49.718Z,2.72
2017-12-25T04:21:49.730Z,2.87
2017-12-25T04:22:49.741Z,2.85
2017-12-25T04:23:49.503Z,2.86
2017-12-25T04:24:49.770Z,2.85
2017-12-25T04:25:49.778Z,2.71
2017-12-25T04:26:49.800Z,2.69
2017-12-25T04:27:49.808Z,2.74
2017-12-25T04:28:49.820Z,2.69
2017-12-25T04:29:49.825Z,2.75
2017-12-25T04:30:49.842Z,2.74
2017-12-25T04:31:49.857Z,2.62
2017-12-25T04:32:49.865Z,2.71
2017-12-25T04:33:49.881Z,2.71
2017-12-25T04:34:49.688Z,2.51
2017-12-25T04:35:49.653Z,2.53
2017-12-25T04:36:49.680Z,2.56
2017-12-25T04:37:49.676Z,2.74
2017-12-25T04:38:49.689Z,2.65
2017-12-25T04:39:49.957Z,2.54
2017-12-25T04:40:49.964Z,2.49
2017-12-25T04:41:49.474Z,2.32
2017-12-25T04:42:49.989Z,2.32
2017-12-25T04:43:49.755Z,2.24
2017-12-25T04:44:49.761Z,2.42
2017-12-25T04:45:49.773Z,2.36
2017-12-25T04:46:49.871Z,2.36
2017-12-25T04:47:49.803Z,2.49
2017-12-25T04:48:49.560Z,2.61
2017-12-25T04:49:50.126Z,2.62
2017-12-25T04:50:49.840Z,2.86
2017-12-25T04:51:50.100Z,2.86
2017-12-25T04:52:50.117Z,2.97
2017-12-25T04:53:50.326Z,3.01
2017-12-25T04:54:50.141Z,2.8
2017-12-25T04:55:49.646Z,2.82
2017-12-25T04:56:50.164Z,2.83
2017-12-25T04:57:49.929Z,2.86
2017-12-25T04:58:49.968Z,2.83
2017-12-25T04:59:49.699Z,2.67
2017-12-25T05:00:49.710Z,2.69
2017-12-25T05:01:49.976Z,2.74
2017-12-25T05:02:50.242Z,2.75
2017-12-25T05:03:50.255Z,2.92
2017-12-25T05:04:50.062Z,2.95
2017-12-25T05:05:50.279Z,2.98
2017-12-25T05:06:50.042Z,2.82
2017-12-25T05:07:50.310Z,2.85
2017-12-25T05:08:50.336Z,2.8
2017-12-25T05:09:50.327Z,2.87
2017-12-25T05:10:50.088Z,3.08
2017-12-25T05:11:50.373Z,3.13
2017-12-25T05:12:50.369Z,3.25
2017-12-25T05:13:50.148Z,3.14
2017-12-25T05:14:50.210Z,3.16
2017-12-25T05:15:50.405Z,3.36
2017-12-25T05:16:50.421Z,3.36
2017-12-25T05:17:50.433Z,3.42
2017-12-25T05:18:50.452Z,3.4
2017-12-25T05:19:50.256Z,3.31
2017-12-25T05:20:50.466Z,3.36
2017-12-25T05:21:50.486Z,3.31
2017-12-25T05:22:50.245Z,3.37
2017-12-25T05:23:50.516Z,3.48
2017-12-25T05:24:50.524Z,3.42
2017-12-25T05:25:50.541Z,3.4
2017-12-25T05:26:50.549Z,3.4
2017-12-25T05:27:50.311Z,3.42
2017-12-25T05:28:50.576Z,3.28
2017-12-25T05:29:50.690Z,3.19
2017-12-25T05:30:50.349Z,3.23
2017-12-25T05:31:50.363Z,3.25
2017-12-25T05:32:50.627Z,3.23
2017-12-25T05:33:50.638Z,3.25
2017-12-25T05:34:50.454Z,3.05
2017-12-25T05:35:50.672Z,3.07
2017-12-25T05:36:50.678Z,3.18
2017-12-25T05:37:50.690Z,3.16
2017-12-25T05:38:50.451Z,3.05
2017-12-25T05:39:50.214Z,2.93
2017-12-25T05:40:50.224Z,2.74
2017-12-25T05:41:50.744Z,2.61
2017-12-25T05:42:50.765Z,2.67
2017-12-25T05:43:50.765Z,2.61
2017-12-25T05:44:50.779Z,2.62
2017-12-25T05:45:50.793Z,2.65
2017-12-25T05:46:50.298Z,2.75
2017-12-25T05:47:50.567Z,2.75
2017-12-25T05:48:50.829Z,2.71
2017-12-25T05:49:50.640Z,2.6
2017-12-25T05:50:50.857Z,2.61
2017-12-25T05:51:50.865Z,2.64
2017-12-25T05:52:50.903Z,2.5
2017-12-25T05:53:50.895Z,2.6
2017-12-25T05:54:50.667Z,2.61
2017-12-25T05:55:50.929Z,2.57
2017-12-25T05:56:50.682Z,2.71
2017-12-25T05:57:50.956Z,2.8
2017-12-25T05:58:50.701Z,2.86
2017-12-25T05:59:50.969Z,2.74
2017-12-25T06:00:50.980Z,2.69
2017-12-25T06:01:50.742Z,2.72
2017-12-25T06:02:51.009Z,2.75
2017-12-25T06:03:51.020Z,2.9
2017-12-25T06:04:50.828Z,2.87
2017-12-25T06:05:51.049Z,2.89
2017-12-25T06:06:51.056Z,3.04
2017-12-25T06:07:51.072Z,2.92
2017-12-25T06:08:50.830Z,2.86
2017-12-25T06:09:51.099Z,3.05
2017-12-25T06:10:50.606Z,3
2017-12-25T06:11:50.615Z,3.08
2017-12-25T06:12:51.134Z,2.93
2017-12-25T06:13:50.897Z,2.95
2017-12-25T06:14:51.162Z,2.61
2017-12-25T06:15:50.666Z,2.61
2017-12-25T06:16:51.189Z,2.57
2017-12-25T06:17:50.946Z,2.61
2017-12-25T06:18:51.221Z,2.6
2017-12-25T06:19:51.230Z,2.68
2017-12-25T06:20:50.981Z,2.71
2017-12-25T06:21:50.994Z,2.75
2017-12-25T06:22:51.261Z,2.56
2017-12-25T06:23:50.765Z,2.42
2017-12-25T06:24:51.289Z,2.38
2017-12-25T06:25:50.992Z,2.57
2017-12-25T06:26:51.061Z,2.57
2017-12-25T06:27:51.330Z,2.53
2017-12-25T06:28:51.449Z,2.56
2017-12-25T06:29:51.354Z,2.49
2017-12-25T06:30:51.368Z,2.32
2017-12-25T06:31:51.375Z,2.38
2017-12-25T06:32:51.388Z,2.54
2017-12-25T06:33:51.148Z,2.6
2017-12-25T06:34:51.162Z,2.83
2017-12-25T06:35:51.172Z,2.83
2017-12-25T06:36:50.928Z,2.77
2017-12-25T06:37:51.455Z,2.92
2017-12-25T06:38:51.508Z,2.83
2017-12-25T06:39:51.219Z,2.87
2017-12-25T06:40:51.483Z,2.95
2017-12-25T06:41:51.495Z,2.87
2017-12-25T06:42:51.521Z,2.77
2017-12-25T06:43:51.526Z,2.85
2017-12-25T06:44:51.290Z,2.77
2017-12-25T06:45:51.292Z,2.89
2017-12-25T06:46:51.565Z,2.9
2017-12-25T06:47:51.682Z,2.82
2017-12-25T06:48:51.334Z,2.68
2017-12-25T06:49:51.598Z,2.82
2017-12-25T06:50:51.403Z,2.8
2017-12-25T06:51:51.628Z,2.85
2017-12-25T06:52:51.149Z,2.83
2017-12-25T06:53:51.442Z,2.97
2017-12-25T06:54:51.405Z,2.93
2017-12-25T06:55:51.166Z,2.98
2017-12-25T06:56:51.179Z,3.05
2017-12-25T06:57:51.441Z,3
2017-12-25T06:58:51.452Z,3.16
2017-12-25T06:59:51.730Z,3.05
2017-12-25T07:00:51.740Z,3.13
2017-12-25T07:01:51.746Z,3.22
2017-12-25T07:02:51.761Z,3.21
2017-12-25T07:03:51.771Z,3.21
2017-12-25T07:04:51.783Z,3.32
2017-12-25T07:05:51.798Z,3.34
2017-12-25T07:06:51.823Z,3.42
2017-12-25T07:07:51.830Z,3.32
2017-12-25T07:08:51.637Z,3.45
2017-12-25T07:09:51.854Z,3.41
2017-12-25T07:10:51.611Z,3.48
2017-12-25T07:11:51.622Z,3.44
2017-12-25T07:12:51.886Z,3.45
2017-12-25T07:13:51.898Z,3.47
2017-12-25T07:14:51.914Z,3.48
2017-12-25T07:15:51.673Z,3.53
2017-12-25T07:16:51.700Z,3.48
2017-12-25T07:17:51.950Z,3.34
2017-12-25T07:18:51.965Z,3.41
2017-12-25T07:19:51.981Z,3.34
2017-12-25T07:20:51.733Z,3.5
2017-12-25T07:21:51.753Z,3.48
2017-12-25T07:22:52.017Z,3.59
2017-12-25T07:23:52.026Z,3.55
2017-12-25T07:24:52.089Z,3.53
2017-12-25T07:25:51.801Z,3.59
2017-12-25T07:26:52.067Z,3.59
2017-12-25T07:27:51.836Z,3.62
2017-12-25T07:28:52.089Z,3.6
2017-12-25T07:29:52.108Z,3.48
2017-12-25T07:30:52.115Z,3.63
2017-12-25T07:31:52.131Z,3.63
2017-12-25T07:32:52.148Z,3.55
2017-12-25T07:33:52.157Z,3.6
2017-12-25T07:34:52.175Z,3.62
2017-12-25T07:35:51.963Z,3.5
2017-12-25T07:36:52.197Z,3.48
2017-12-25T07:37:52.202Z,3.63
2017-12-25T07:38:52.209Z,3.62
2017-12-25T07:39:51.775Z,3.7
2017-12-25T07:40:52.250Z,3.78
2017-12-25T07:41:52.265Z,3.77
2017-12-25T07:42:52.272Z,3.77
2017-12-25T07:43:52.294Z,3.81
2017-12-25T07:44:52.299Z,3.78
2017-12-25T07:45:52.314Z,3.96
2017-12-25T07:46:52.069Z,4.06
2017-12-25T07:47:52.348Z,4.05
2017-12-25T07:48:52.344Z,4.05
2017-12-25T07:49:52.119Z,3.98
2017-12-25T07:50:51.879Z,4.08
2017-12-25T07:51:52.139Z,4.17
2017-12-25T07:52:52.151Z,4.2
2017-12-25T07:53:52.161Z,4.16
2017-12-25T07:54:52.581Z,4.19
2017-12-25T07:55:52.441Z,4.17
2017-12-25T07:56:52.466Z,4.12
2017-12-25T07:57:52.475Z,4.04
2017-12-25T07:58:52.479Z,4.02
2017-12-25T07:59:52.250Z,3.98
2017-12-25T08:00:52.255Z,3.92
2017-12-25T08:01:52.272Z,4.01
2017-12-25T08:02:52.536Z,4.02
2017-12-25T08:03:52.046Z,3.99
2017-12-25T08:04:52.567Z,3.88
2017-12-25T08:05:52.577Z,3.83
2017-12-25T08:06:52.597Z,3.91
2017-12-25T08:07:52.100Z,3.95
2017-12-25T08:08:52.366Z,3.95
2017-12-25T08:09:52.680Z,3.88
2017-12-25T08:10:52.393Z,4.02
2017-12-25T08:11:52.416Z,3.78
2017-12-25T08:12:52.679Z,3.74
2017-12-25T08:13:52.432Z,3.78
2017-12-25T08:14:52.446Z,3.77
2017-12-25T08:15:52.708Z,3.74
2017-12-25T08:16:52.728Z,3.76
2017-12-25T08:17:52.489Z,3.74
2017-12-25T08:18:52.509Z,3.86
2017-12-25T08:19:52.518Z,3.96
2017-12-25T08:20:52.624Z,4.05
2017-12-25T08:21:52.290Z,3.99
2017-12-25T08:22:52.556Z,3.95
2017-12-25T08:23:52.823Z,4.01
2017-12-25T08:24:52.635Z,3.96
2017-12-25T08:25:52.852Z,4.06
2017-12-25T08:26:52.613Z,3.98
2017-12-25T08:27:52.888Z,4.04
2017-12-25T08:28:52.638Z,4.26
2017-12-25T08:29:52.657Z,4.35
2017-12-25T08:30:52.921Z,4.31
2017-12-25T08:31:52.681Z,4.45
2017-12-25T08:32:52.694Z,4.52
2017-12-25T08:33:52.709Z,4.52
2017-12-25T08:34:52.978Z,4.6
2017-12-25T08:35:52.991Z,4.6
2017-12-25T08:36:52.750Z,4.63
2017-12-25T08:37:53.058Z,4.62
2017-12-25T08:38:52.781Z,4.56
2017-12-25T08:39:52.840Z,4.56
2017-12-25T08:40:53.055Z,4.59
2017-12-25T08:41:53.074Z,4.59
2017-12-25T08:42:53.094Z,4.58
2017-12-25T08:43:52.854Z,4.34
2017-12-25T08:44:52.868Z,4.48
2017-12-25T08:45:53.128Z,4.52
2017-12-25T08:46:53.147Z,4.4
2017-12-25T08:47:53.156Z,4.44
2017-12-25T08:48:53.170Z,4.55
2017-12-25T08:49:52.678Z,4.66
2017-12-25T08:50:52.949Z,4.52
2017-12-25T08:51:53.210Z,4.62
2017-12-25T08:52:53.238Z,4.71
2017-12-25T08:53:52.988Z,4.71
2017-12-25T08:54:53.301Z,4.82
2017-12-25T08:55:53.270Z,4.89
2017-12-25T08:56:52.777Z,4.82
2017-12-25T08:57:53.040Z,4.87
2017-12-25T08:58:53.310Z,4.74
2017-12-25T08:59:53.419Z,4.78
2017-12-25T09:00:53.336Z,4.78
2017-12-25T09:01:52.846Z,4.86
2017-12-25T09:02:53.119Z,4.8
2017-12-25T09:03:53.379Z,4.74
2017-12-25T09:04:53.402Z,4.87
2017-12-25T09:05:53.157Z,4.71
2017-12-25T09:06:53.423Z,4.73
2017-12-25T09:07:53.180Z,4.7
2017-12-25T09:08:53.203Z,4.71
2017-12-25T09:09:53.510Z,4.58
2017-12-25T09:10:53.223Z,4.38
2017-12-25T09:11:53.488Z,4.41
2017-12-25T09:12:53.255Z,4.5
2017-12-25T09:13:53.526Z,4.52
2017-12-25T09:14:53.529Z,4.34
2017-12-25T09:15:53.294Z,4.24
2017-12-25T09:16:53.315Z,4.14
2017-12-25T09:17:53.319Z,4.13
2017-12-25T09:18:53.593Z,4.19
2017-12-25T09:19:53.914Z,4.04
2017-12-25T09:20:53.617Z,4.1
2017-12-25T09:21:53.630Z,4.02
2017-12-25T09:22:53.642Z,3.99
2017-12-25T09:23:53.664Z,4.17
2017-12-25T09:24:53.722Z,4.2
2017-12-25T09:25:53.181Z,4.19
2017-12-25T09:26:53.714Z,4.19
2017-12-25T09:27:53.715Z,3.98
2017-12-25T09:28:53.481Z,3.98
2017-12-25T09:29:53.751Z,4.05
2017-12-25T09:30:53.504Z,3.96
2017-12-25T09:31:53.519Z,4.02
2017-12-25T09:32:53.530Z,3.88
2017-12-25T09:33:53.801Z,3.95
2017-12-25T09:34:53.816Z,3.98
2017-12-25T09:35:53.832Z,4.13
2017-12-25T09:36:53.838Z,4.32
2017-12-25T09:37:53.855Z,4.37
2017-12-25T09:38:53.615Z,4.58
2017-12-25T09:39:53.952Z,4.63
2017-12-25T09:40:53.650Z,4.68
2017-12-25T09:41:53.654Z,4.92
2017-12-25T09:42:53.944Z,4.9
2017-12-25T09:43:53.688Z,5.04
2017-12-25T09:44:53.710Z,5.18
2017-12-25T09:45:53.964Z,5.3
2017-12-25T09:46:53.982Z,5.44
2017-12-25T09:47:53.742Z,5.54
2017-12-25T09:48:54.010Z,5.68
2017-12-25T09:49:53.768Z,5.62
2017-12-25T09:50:54.041Z,5.66
2017-12-25T09:51:54.052Z,5.66
2017-12-25T09:52:53.831Z,5.79
2017-12-25T09:53:53.826Z,5.83
2017-12-25T09:54:54.149Z,6.02
2017-12-25T09:55:54.109Z,6.02
2017-12-25T09:56:54.124Z,6.35
2017-12-25T09:57:53.893Z,6.46
2017-12-25T09:58:54.211Z,6.78
2017-12-25T09:59:54.232Z,6.89
2017-12-25T10:00:53.932Z,7.11
2017-12-25T10:01:54.221Z,7.21
2017-12-25T10:02:53.989Z,7.53
2017-12-25T10:03:54.239Z,7.87
2017-12-25T10:04:54.251Z,8.09
2017-12-25T10:05:54.269Z,8.34
2017-12-25T10:06:54.291Z,8.7
2017-12-25T10:07:54.058Z,8.73
2017-12-25T10:08:54.322Z,8.95
2017-12-25T10:09:54.414Z,9.29
2017-12-25T10:10:54.116Z,9.47
2017-12-25T10:11:53.877Z,9.8
2017-12-25T10:12:54.399Z,10.04
2017-12-25T10:13:54.166Z,9.98
2017-12-25T10:14:54.192Z,9.92
2017-12-25T10:15:54.466Z,10.05
2017-12-25T10:16:54.238Z,10.3
2017-12-25T10:17:54.509Z,10.33
2017-12-25T10:18:54.273Z,10.41
2017-12-25T10:19:54.295Z,10.46
2017-12-25T10:20:54.629Z,10.49
2017-12-25T10:21:54.348Z,10.81
2017-12-25T10:22:54.613Z,10.96
2017-12-25T10:23:54.639Z,11.1
2017-12-25T10:24:54.456Z,11.29
2017-12-25T10:25:54.684Z,11.17
2017-12-25T10:26:54.203Z,11.4
2017-12-25T10:27:54.485Z,11.73
2017-12-25T10:28:54.756Z,11.87
2017-12-25T10:29:54.778Z,12.18
2017-12-25T10:30:54.803Z,12.31
2017-12-25T10:31:54.575Z,12.39
2017-12-25T10:32:54.855Z,12.65
2017-12-25T10:33:54.876Z,12.91
2017-12-25T10:34:54.948Z,12.87
2017-12-25T10:35:54.933Z,13.12
2017-12-25T10:36:54.702Z,13.11
2017-12-25T10:37:54.978Z,13.16
2017-12-25T10:38:54.753Z,13.44
2017-12-25T10:39:54.828Z,13.68
2017-12-25T10:40:55.052Z,14
2017-12-25T10:41:55.082Z,14.53
2017-12-25T10:42:55.105Z,14.78
2017-12-25T10:43:54.877Z,14.92
2017-12-25T10:44:55.165Z,15.07
2017-12-25T10:45:55.183Z,15.31
2017-12-25T10:46:54.960Z,15.55
2017-12-25T10:47:54.985Z,15.27
2017-12-25T10:48:55.012Z,15.1
2017-12-25T10:49:55.049Z,15.18
2017-12-25T10:50:55.324Z,15.55
2017-12-25T10:51:55.094Z,15.82
2017-12-25T10:52:54.867Z,16.12
2017-12-25T10:53:55.402Z,16.39
2017-12-25T10:54:55.478Z,16.61
2017-12-25T10:55:54.952Z,16.69
2017-12-25T10:56:55.489Z,16.74
2017-12-25T10:57:55.508Z,16.68
2017-12-25T10:58:55.287Z,16.36
2017-12-25T10:59:55.311Z,16.38
2017-12-25T11:00:55.341Z,16.26
2017-12-25T11:01:55.119Z,16.32
2017-12-25T11:02:55.147Z,16.04
2017-12-25T11:03:55.674Z,16.05
2017-12-25T11:04:55.718Z,16.41
2017-12-25T11:05:55.222Z,16.5
2017-12-25T11:06:55.506Z,16.53
2017-12-25T11:07:55.786Z,16.66
2017-12-25T11:08:55.814Z,16.89
2017-12-25T11:09:55.640Z,17.3
2017-12-25T11:10:55.871Z,17.42
2017-12-25T11:11:55.647Z,17.56
2017-12-25T11:12:55.675Z,17.74
2017-12-25T11:13:55.960Z,17.78
2017-12-25T11:14:55.732Z,17.95
2017-12-25T11:15:55.510Z,18.15
2017-12-25T11:16:55.800Z,18.37
2017-12-25T11:17:56.078Z,18.52
2017-12-25T11:18:56.101Z,18.83
2017-12-25T11:19:56.136Z,19.04
2017-12-25T11:20:56.167Z,19.24
2017-12-25T11:21:56.191Z,19.31
2017-12-25T11:22:56.218Z,19.44
2017-12-25T11:23:56.296Z,19.59
2017-12-25T11:24:56.332Z,19.55
2017-12-25T11:25:56.058Z,19.51
2017-12-25T11:26:56.333Z,19.74
2017-12-25T11:27:56.114Z,20
2017-12-25T11:28:56.395Z,20.06
2017-12-25T11:29:56.170Z,20.18
2017-12-25T11:30:56.204Z,20.21
2017-12-25T11:31:56.482Z,20.41
2017-12-25T11:32:56.517Z,20.28
2017-12-25T11:33:56.290Z,20.37
2017-12-25T11:34:56.065Z,20.43
2017-12-25T11:35:56.359Z,20.59
2017-12-25T11:36:56.633Z,20.81
2017-12-25T11:37:56.417Z,20.69
2017-12-25T11:38:56.703Z,21.05
2017-12-25T11:39:56.787Z,21.06
2017-12-25T11:40:56.755Z,21.03
2017-12-25T11:41:56.798Z,21.03
2017-12-25T11:42:56.570Z,21.11
2017-12-25T11:43:56.855Z,21.06
2017-12-25T11:44:56.990Z,21.3
2017-12-25T11:45:56.659Z,21.27
2017-12-25T11:46:56.954Z,21.3
2017-12-25T11:47:56.989Z,21.76
2017-12-25T11:48:56.505Z,21.77
2017-12-25T11:49:57.049Z,21.76
2017-12-25T11:50:56.819Z,21.83
2017-12-25T11:51:57.106Z,21.66
2017-12-25T11:52:56.884Z,21.91
2017-12-25T11:53:57.167Z,22.08
2017-12-25T11:54:57.205Z,22.07
2017-12-25T11:55:57.229Z,22.36
2017-12-25T11:56:57.012Z,22.85
2017-12-25T11:57:56.792Z,23.23
2017-12-25T11:58:57.327Z,23.58
2017-12-25T11:59:57.361Z,23.77
2017-12-25T12:00:57.397Z,23.99
2017-12-25T12:01:57.426Z,23.96
2017-12-25T12:02:57.452Z,24.05
2017-12-25T12:03:57.491Z,24.16
2017-12-25T12:04:57.522Z,24.33
2017-12-25T12:05:57.589Z,24.38
2017-12-25T12:06:57.344Z,23.96
2017-12-25T12:07:57.373Z,23.81
2017-12-25T12:08:57.649Z,24.01
2017-12-25T12:09:57.448Z,24.17
2017-12-25T12:10:57.714Z,24.29
2017-12-25T12:11:57.748Z,24.51
2017-12-25T12:12:57.536Z,24.81
2017-12-25T12:13:57.710Z,24.89
2017-12-25T12:14:57.341Z,25.17
2017-12-25T12:15:57.626Z,24.92
2017-12-25T12:16:57.668Z,24.77
2017-12-25T12:17:57.691Z,24.95
2017-12-25T12:18:57.725Z,25.13
2017-12-25T12:19:57.759Z,25.01
2017-12-25T12:20:58.042Z,25.28
2017-12-25T12:21:58.078Z,25.03
2017-12-25T12:22:58.112Z,24.86
2017-12-25T12:23:58.139Z,25.01
2017-12-25T12:24:58.171Z,24.99
2017-12-25T12:25:58.232Z,25.01
2017-12-25T12:26:57.988Z,25.03
2017-12-25T12:27:58.020Z,25.11
2017-12-25T12:28:58.156Z,25.31
2017-12-25T12:29:58.340Z,25.31
2017-12-25T12:30:58.388Z,25.38
2017-12-25T12:31:58.408Z,25.29
2017-12-25T12:32:58.438Z,25.38
2017-12-25T12:33:58.472Z,25.28
2017-12-25T12:34:58.001Z,25.43
2017-12-25T12:35:58.537Z,25.69
2017-12-25T12:36:58.361Z,25.44
2017-12-25T12:37:58.608Z,25.43
2017-12-25T12:38:58.689Z,25.5
2017-12-25T12:39:58.677Z,25.16
2017-12-25T12:40:58.705Z,25.13
2017-12-25T12:41:58.489Z,25.44
2017-12-25T12:42:58.772Z,25.53
2017-12-25T12:43:58.856Z,25.78
2017-12-25T12:44:58.866Z,25.72
2017-12-25T12:45:58.923Z,25.7
2017-12-25T12:46:58.655Z,25.51
2017-12-25T12:47:58.436Z,25.53
2017-12-25T12:48:58.770Z,25.51
2017-12-25T12:49:59.011Z,25.84
2017-12-25T12:50:59.040Z,25.99
2017-12-25T12:51:59.074Z,25.32
2017-12-25T12:52:58.857Z,25.36
2017-12-25T12:53:59.145Z,25.6
2017-12-25T12:54:59.198Z,25.84
2017-12-25T12:55:59.207Z,26.15
2017-12-25T12:56:59.261Z,26.38
2017-12-25T12:57:59.277Z,26.37
2017-12-25T12:58:59.104Z,26.34
2017-12-25T12:59:58.843Z,26.58
2017-12-25T13:00:58.871Z,26.74
2017-12-25T13:01:59.405Z,26.9
2017-12-25T13:02:59.445Z,26.77
2017-12-25T13:03:59.478Z,26.6
2017-12-25T13:04:59.515Z,26.78
2017-12-25T13:05:59.539Z,26.63
2017-12-25T13:06:59.575Z,26.78
2017-12-25T13:07:59.611Z,26.41
2017-12-25T13:08:59.650Z,26.43
2017-12-25T13:09:59.677Z,26.25
2017-12-25T13:10:59.710Z,26.28
2017-12-25T13:11:59.743Z,26.03
2017-12-25T13:12:59.751Z,26.1
2017-12-25T13:13:59.838Z,25.65
2017-12-25T13:14:59.818Z,25.26
2017-12-25T13:15:59.852Z,24.89